createdAt,value
2017-06-25T00:01:00.896Z,0
2017-06-25T00:02:02.544Z,0
2017-06-25T00:03:04.188Z,0
2017-06-25T00:04:05.819Z,0
2017-06-25T00:05:07.464Z,0
2017-06-25T00:06:09.116Z,0
2017-06-25T00:07:10.757Z,0
2017-06-25T00:08:12.391Z,0
2017-06-25T00:09:14.036Z,0
2017-06-25T00:10:15.666Z,0
2017-06-25T00:11:17.333Z,0
2017-06-25T00:12:19.004Z,0
2017-06-25T00:13:20.639Z,0
2017-06-25T00:14:22.294Z,0
2017-06-25T00:15:23.943Z,0
2017-06-25T00:16:25.609Z,0
2017-06-25T00:17:27.248Z,0
2017-06-25T00:18:28.876Z,0
2017-06-25T00:19:30.516Z,0
2017-06-25T00:20:32.154Z,0
2017-06-25T00:21:33.817Z,0
2017-06-25T00:22:35.450Z,0
2017-06-25T00:23:37.101Z,0
2017-06-25T00:24:38.736Z,0
2017-06-25T00:25:40.386Z,0
2017-06-25T00:26:42.017Z,0
2017-06-25T00:27:43.660Z,0
2017-06-25T00:28:45.322Z,0
2017-06-25T00:29:46.961Z,0
2017-06-25T00:30:48.636Z,0
2017-06-25T00:31:50.267Z,0
2017-06-25T00:32:51.901Z,0
2017-06-25T00:33:53.535Z,0
2017-06-25T00:34:55.192Z,0
2017-06-25T00:35:56.830Z,0
2017-06-25T00:36:58.484Z,0
2017-06-25T00:38:00.126Z,0
2017-06-25T00:39:01.768Z,0
2017-06-25T00:40:03.412Z,0
2017-06-25T00:41:05.055Z,0
2017-06-25T00:42:07.751Z,0
2017-06-25T00:43:09.679Z,0
2017-06-25T00:44:11.321Z,0
2017-06-25T00:45:12.959Z,0
2017-06-25T00:46:14.597Z,0
2017-06-25T00:47:16.232Z,0
2017-06-25T00:48:17.903Z,0
2017-06-25T00:49:19.533Z,0
2017-06-25T00:50:21.168Z,0
2017-06-25T00:51:22.807Z,0
2017-06-25T00:52:24.441Z,0
2017-06-25T00:53:26.082Z,0
2017-06-25T00:54:27.725Z,0
2017-06-25T00:55:29.368Z,0
2017-06-25T00:56:31.004Z,0
2017-06-25T00:57:32.674Z,0
2017-06-25T00:58:34.402Z,0
2017-06-25T00:59:36.225Z,0
2017-06-25T01:00:38.086Z,0
2017-06-25T01:01:40.120Z,0
2017-06-25T01:02:42.089Z,0
2017-06-25T01:03:43.761Z,0
2017-06-25T01:04:45.377Z,0
2017-06-25T01:05:47.013Z,0
2017-06-25T01:06:48.668Z,0
2017-06-25T01:07:50.290Z,0
2017-06-25T01:08:51.927Z,0
2017-06-25T01:09:54.006Z,0
2017-06-25T01:10:56.604Z,0
2017-06-25T01:11:58.258Z,0
2017-06-25T01:12:59.895Z,0
2017-06-25T01:14:02.347Z,0
2017-06-25T01:15:03.991Z,0
2017-06-25T01:16:06.118Z,0
2017-06-25T01:17:07.813Z,0
2017-06-25T01:18:09.446Z,0
2017-06-25T01:19:11.082Z,0
2017-06-25T01:20:12.716Z,0
2017-06-25T01:21:14.593Z,0
2017-06-25T01:22:16.237Z,0
2017-06-25T01:23:17.885Z,0
2017-06-25T01:24:19.515Z,0
2017-06-25T01:25:21.741Z,0
2017-06-25T01:26:23.397Z,0
2017-06-25T01:27:25.034Z,0
2017-06-25T01:28:26.678Z,0
2017-06-25T01:29:28.323Z,0
2017-06-25T01:30:29.956Z,0
2017-06-25T01:31:31.593Z,0
2017-06-25T01:32:33.252Z,0
2017-06-25T01:33:34.894Z,0
2017-06-25T01:34:36.526Z,0
2017-06-25T01:35:38.155Z,0
2017-06-25T01:36:39.794Z,0
2017-06-25T01:37:41.428Z,0
2017-06-25T01:38:43.064Z,0
2017-06-25T01:39:44.701Z,0
2017-06-25T01:40:46.332Z,0
2017-06-25T01:41:47.974Z,0
2017-06-25T01:42:49.627Z,0
2017-06-25T01:43:52.249Z,0
2017-06-25T01:44:53.880Z,0
2017-06-25T01:45:55.524Z,0
2017-06-25T01:46:57.168Z,0
2017-06-25T01:47:58.799Z,0
2017-06-25T01:49:00.433Z,0
2017-06-25T01:50:02.077Z,0
2017-06-25T01:51:03.722Z,0
2017-06-25T01:52:05.351Z,0
2017-06-25T01:53:06.986Z,0
2017-06-25T01:54:09.249Z,0
2017-06-25T01:55:10.886Z,0
2017-06-25T01:56:12.549Z,0
2017-06-25T01:57:14.183Z,0
2017-06-25T01:58:15.824Z,0
2017-06-25T01:59:17.497Z,0
2017-06-25T02:00:19.131Z,0
2017-06-25T02:01:20.770Z,0
2017-06-25T02:02:22.411Z,0
2017-06-25T02:03:24.066Z,0
2017-06-25T02:04:25.709Z,0
2017-06-25T02:05:27.344Z,0
2017-06-25T02:06:29.010Z,0
2017-06-25T02:07:30.681Z,0
2017-06-25T02:08:32.312Z,0
2017-06-25T02:09:33.957Z,0
2017-06-25T02:10:35.593Z,0
2017-06-25T02:11:37.230Z,0
2017-06-25T02:13:48.415Z,0
2017-06-25T02:14:50.055Z,0
2017-06-25T02:15:51.692Z,0
2017-06-25T02:16:53.343Z,0
2017-06-25T02:17:54.989Z,0
2017-06-25T02:18:56.630Z,0
2017-06-25T02:19:58.262Z,0
2017-06-25T02:20:59.909Z,0
2017-06-25T02:22:01.551Z,0
2017-06-25T02:23:03.180Z,0
2017-06-25T02:24:04.838Z,0
2017-06-25T02:25:06.470Z,0
2017-06-25T02:26:08.107Z,0
2017-06-25T02:27:09.737Z,0
2017-06-25T02:28:11.375Z,0
2017-06-25T02:29:13.010Z,0
2017-06-25T02:30:14.669Z,0
2017-06-25T02:31:16.324Z,0
2017-06-25T02:32:17.970Z,0
2017-06-25T02:33:19.620Z,0
2017-06-25T02:34:21.259Z,0
2017-06-25T02:35:22.897Z,0
2017-06-25T02:36:24.537Z,0
2017-06-25T02:37:26.177Z,0
2017-06-25T02:38:27.814Z,0
2017-06-25T02:39:29.478Z,0
2017-06-25T02:40:31.112Z,0
2017-06-25T02:41:32.748Z,0
2017-06-25T02:42:34.383Z,0
2017-06-25T02:43:36.015Z,0
2017-06-25T02:44:37.646Z,0
2017-06-25T02:45:39.284Z,0
2017-06-25T02:46:40.921Z,0
2017-06-25T02:47:42.561Z,0
2017-06-25T02:48:44.199Z,0
2017-06-25T02:49:45.842Z,0
2017-06-25T02:50:47.502Z,0
2017-06-25T02:51:49.166Z,4
2017-06-25T02:52:50.809Z,4
2017-06-25T02:53:52.445Z,4
2017-06-25T02:54:54.116Z,4
2017-06-25T02:55:55.756Z,0
2017-06-25T02:56:57.403Z,0
2017-06-25T02:57:59.054Z,4
2017-06-25T02:59:00.698Z,4
2017-06-25T03:00:02.354Z,4
2017-06-25T03:01:04.044Z,8
2017-06-25T03:02:05.698Z,4
2017-06-25T03:03:07.357Z,8
2017-06-25T03:04:09.010Z,8
2017-06-25T03:05:10.636Z,8
2017-06-25T03:06:12.282Z,12
2017-06-25T03:07:13.933Z,12
2017-06-25T03:08:15.573Z,16
2017-06-25T03:09:17.232Z,16
2017-06-25T03:10:18.896Z,16
2017-06-25T03:11:20.540Z,16
2017-06-25T03:12:22.179Z,20
2017-06-25T03:13:23.848Z,16
2017-06-25T03:14:25.482Z,24
2017-06-25T03:15:27.123Z,24
2017-06-25T03:16:29.466Z,28
2017-06-25T03:17:31.097Z,24
2017-06-25T03:18:32.740Z,28
2017-06-25T03:19:34.411Z,40
2017-06-25T03:20:36.050Z,40
2017-06-25T03:21:37.678Z,44
2017-06-25T03:22:39.325Z,44
2017-06-25T03:23:40.964Z,44
2017-06-25T03:24:42.602Z,48
2017-06-25T03:25:44.246Z,40
2017-06-25T03:26:45.883Z,40
2017-06-25T03:27:47.553Z,44
2017-06-25T03:28:49.188Z,36
2017-06-25T03:29:50.879Z,40
2017-06-25T03:30:52.520Z,36
2017-06-25T03:31:54.163Z,44
2017-06-25T03:32:55.809Z,48
2017-06-25T03:33:57.452Z,48
2017-06-25T03:34:59.099Z,56
2017-06-25T03:36:00.739Z,64
2017-06-25T03:37:02.371Z,72
2017-06-25T03:38:04.031Z,60
2017-06-25T03:39:05.670Z,68
2017-06-25T03:40:07.300Z,72
2017-06-25T03:41:08.962Z,72
2017-06-25T03:42:10.594Z,68
2017-06-25T03:43:12.229Z,72
2017-06-25T03:44:13.907Z,64
2017-06-25T03:45:15.551Z,64
2017-06-25T03:46:17.198Z,72
2017-06-25T03:47:18.871Z,72
2017-06-25T03:48:20.506Z,72
2017-06-25T03:49:22.148Z,76
2017-06-25T03:50:23.786Z,76
2017-06-25T03:51:25.439Z,76
2017-06-25T03:52:27.090Z,80
2017-06-25T03:53:28.754Z,84
2017-06-25T03:54:30.383Z,84
2017-06-25T03:55:32.018Z,88
2017-06-25T03:56:33.653Z,88
2017-06-25T03:57:35.290Z,96
2017-06-25T03:58:36.934Z,104
2017-06-25T03:59:38.598Z,120
2017-06-25T04:00:40.244Z,120
2017-06-25T04:01:41.891Z,124
2017-06-25T04:02:43.543Z,136
2017-06-25T04:03:45.178Z,144
2017-06-25T04:04:46.822Z,176
2017-06-25T04:05:48.484Z,148
2017-06-25T04:06:50.119Z,148
2017-06-25T04:07:51.761Z,124
2017-06-25T04:08:53.403Z,108
2017-06-25T04:09:55.053Z,104
2017-06-25T04:10:56.707Z,100
2017-06-25T04:11:58.387Z,108
2017-06-25T04:13:00.027Z,104
2017-06-25T04:14:01.705Z,100
2017-06-25T04:15:03.380Z,100
2017-06-25T04:16:05.016Z,112
2017-06-25T04:17:06.657Z,112
2017-06-25T04:18:08.290Z,124
2017-06-25T04:19:09.941Z,124
2017-06-25T04:20:11.577Z,136
2017-06-25T04:21:13.219Z,140
2017-06-25T04:22:14.855Z,144
2017-06-25T04:23:16.501Z,160
2017-06-25T04:24:18.143Z,172
2017-06-25T04:25:19.792Z,172
2017-06-25T04:26:21.434Z,184
2017-06-25T04:27:23.079Z,196
2017-06-25T04:28:24.721Z,200
2017-06-25T04:29:26.370Z,192
2017-06-25T04:30:28.005Z,176
2017-06-25T04:31:29.675Z,172
2017-06-25T04:32:31.338Z,240
2017-06-25T04:33:32.982Z,220
2017-06-25T04:34:34.616Z,196
2017-06-25T04:35:36.254Z,164
2017-06-25T04:36:37.895Z,136
2017-06-25T04:37:39.564Z,140
2017-06-25T04:38:41.246Z,140
2017-06-25T04:39:42.881Z,136
2017-06-25T04:40:44.525Z,176
2017-06-25T04:41:46.161Z,196
2017-06-25T04:42:47.809Z,224
2017-06-25T04:43:49.458Z,232
2017-06-25T04:44:51.110Z,248
2017-06-25T04:45:52.750Z,256
2017-06-25T04:46:54.458Z,276
2017-06-25T04:47:56.096Z,296
2017-06-25T04:48:57.757Z,340
2017-06-25T04:49:59.439Z,284
2017-06-25T04:51:01.083Z,276
2017-06-25T04:52:02.717Z,264
2017-06-25T04:53:04.372Z,260
2017-06-25T04:54:06.005Z,300
2017-06-25T04:55:07.642Z,300
2017-06-25T04:56:09.293Z,320
2017-06-25T04:57:10.961Z,392
2017-06-25T04:58:12.602Z,448
2017-06-25T04:59:14.249Z,424
2017-06-25T05:00:15.888Z,504
2017-06-25T05:01:17.530Z,608
2017-06-25T05:02:19.181Z,576
2017-06-25T05:03:20.865Z,580
2017-06-25T05:04:22.506Z,588
2017-06-25T05:05:24.164Z,612
2017-06-25T05:06:25.829Z,544
2017-06-25T05:07:27.462Z,500
2017-06-25T05:08:29.132Z,488
2017-06-25T05:09:30.779Z,460
2017-06-25T05:10:32.431Z,484
2017-06-25T05:11:34.102Z,528
2017-06-25T05:12:35.739Z,364
2017-06-25T05:13:37.383Z,264
2017-06-25T05:14:39.060Z,220
2017-06-25T05:15:40.699Z,240
2017-06-25T05:16:42.337Z,272
2017-06-25T05:17:43.991Z,296
2017-06-25T05:18:45.638Z,336
2017-06-25T05:19:47.289Z,392
2017-06-25T05:20:48.951Z,568
2017-06-25T05:21:50.606Z,528
2017-06-25T05:22:52.228Z,608
2017-06-25T05:23:53.912Z,552
2017-06-25T05:24:55.557Z,416
2017-06-25T05:25:57.209Z,436
2017-06-25T05:26:58.855Z,444
2017-06-25T05:28:00.537Z,504
2017-06-25T05:29:02.202Z,476
2017-06-25T05:30:03.935Z,400
2017-06-25T05:31:05.562Z,364
2017-06-25T05:32:07.191Z,544
2017-06-25T05:33:08.834Z,388
2017-06-25T05:34:10.475Z,368
2017-06-25T05:35:12.121Z,392
2017-06-25T05:36:13.850Z,440
2017-06-25T05:37:15.492Z,336
2017-06-25T05:38:17.131Z,376
2017-06-25T05:39:18.803Z,432
2017-06-25T05:40:20.449Z,432
2017-06-25T05:41:22.111Z,452
2017-06-25T05:42:23.769Z,508
2017-06-25T05:43:25.416Z,544
2017-06-25T05:44:27.056Z,792
2017-06-25T05:45:28.758Z,700
2017-06-25T05:46:30.407Z,1164
2017-06-25T05:47:32.058Z,1504
2017-06-25T05:48:33.756Z,1444
2017-06-25T05:49:35.401Z,1524
2017-06-25T05:50:37.037Z,1252
2017-06-25T05:51:38.696Z,1160
2017-06-25T05:52:40.338Z,1352
2017-06-25T05:53:41.975Z,1648
2017-06-25T05:54:43.641Z,1344
2017-06-25T05:55:45.320Z,1204
2017-06-25T05:56:46.964Z,1096
2017-06-25T05:57:48.613Z,1188
2017-06-25T05:58:50.277Z,1136
2017-06-25T05:59:51.906Z,1416
2017-06-25T06:00:53.588Z,1352
2017-06-25T06:01:55.251Z,1412
2017-06-25T06:02:56.901Z,1100
2017-06-25T06:03:58.597Z,1048
2017-06-25T06:05:00.211Z,1156
2017-06-25T06:06:01.884Z,1016
2017-06-25T06:07:03.560Z,796
2017-06-25T06:08:05.211Z,1044
2017-06-25T06:09:06.859Z,1060
2017-06-25T06:10:08.535Z,1260
2017-06-25T06:11:10.177Z,1256
2017-06-25T06:12:11.817Z,1024
2017-06-25T06:13:13.484Z,1020
2017-06-25T06:14:15.133Z,1356
2017-06-25T06:15:16.777Z,1736
2017-06-25T06:16:18.481Z,2080
2017-06-25T06:17:20.145Z,2164
2017-06-25T06:18:21.789Z,2228
2017-06-25T06:19:23.439Z,2048
2017-06-25T06:20:25.080Z,2460
2017-06-25T06:21:26.732Z,2408
2017-06-25T06:22:28.410Z,2352
2017-06-25T06:23:30.063Z,2340
2017-06-25T06:24:31.755Z,2448
2017-06-25T06:25:33.404Z,2360
2017-06-25T06:27:57.651Z,2180
2017-06-25T06:28:59.395Z,2384
2017-06-25T06:30:01.034Z,2520
2017-06-25T06:31:02.675Z,2648
2017-06-25T06:32:04.317Z,2656
2017-06-25T06:33:05.960Z,2516
2017-06-25T06:34:07.598Z,2608
2017-06-25T06:35:09.234Z,2392
2017-06-25T06:36:10.871Z,2392
2017-06-25T06:37:12.516Z,2420
2017-06-25T06:38:14.186Z,2376
2017-06-25T06:39:15.828Z,2664
2017-06-25T06:40:17.569Z,2836
2017-06-25T06:41:19.232Z,2652
2017-06-25T06:42:20.913Z,1700
2017-06-25T06:43:22.563Z,1820
2017-06-25T06:44:24.283Z,1472
2017-06-25T06:45:25.956Z,1392
2017-06-25T06:46:27.596Z,1384
2017-06-25T06:47:29.263Z,1004
2017-06-25T06:48:30.899Z,860
2017-06-25T06:49:32.536Z,792
2017-06-25T06:50:34.181Z,1272
2017-06-25T06:51:35.821Z,1312
2017-06-25T06:52:37.461Z,1532
2017-06-25T06:53:39.149Z,1460
2017-06-25T06:54:40.809Z,1412
2017-06-25T06:55:42.449Z,1712
2017-06-25T06:56:44.136Z,1216
2017-06-25T06:57:45.778Z,1692
2017-06-25T06:58:47.460Z,1812
2017-06-25T06:59:49.233Z,2340
2017-06-25T07:00:50.774Z,2084
2017-06-25T07:01:52.419Z,2056
2017-06-25T07:02:54.082Z,2248
2017-06-25T07:03:55.754Z,2060
2017-06-25T07:04:57.397Z,1936
2017-06-25T07:05:59.034Z,1872
2017-06-25T07:07:00.677Z,1884
2017-06-25T07:08:02.325Z,2360
2017-06-25T07:09:03.960Z,2740
2017-06-25T07:10:05.595Z,2820
2017-06-25T07:11:07.289Z,2836
2017-06-25T07:12:08.986Z,3324
2017-06-25T07:13:10.626Z,3868
2017-06-25T07:14:12.271Z,3244
2017-06-25T07:15:14.470Z,3276
2017-06-25T07:16:16.952Z,2864
2017-06-25T07:17:18.705Z,2356
2017-06-25T07:18:20.344Z,2312
2017-06-25T07:19:21.984Z,2336
2017-06-25T07:20:23.622Z,2412
2017-06-25T07:21:25.270Z,2320
2017-06-25T07:22:26.939Z,2944
2017-06-25T07:23:28.614Z,2216
2017-06-25T07:24:30.253Z,1592
2017-06-25T07:25:31.900Z,2240
2017-06-25T07:26:33.574Z,2448
2017-06-25T07:27:35.216Z,2456
2017-06-25T07:28:36.872Z,2212
2017-06-25T07:29:38.556Z,1744
2017-06-25T07:30:40.189Z,1532
2017-06-25T07:31:41.821Z,1224
2017-06-25T07:32:43.485Z,1528
2017-06-25T07:33:45.127Z,1576
2017-06-25T07:34:46.769Z,1484
2017-06-25T07:35:48.421Z,1040
2017-06-25T07:36:50.067Z,1484
2017-06-25T07:37:51.713Z,1372
2017-06-25T07:38:53.361Z,1224
2017-06-25T07:39:54.998Z,1840
2017-06-25T07:40:56.668Z,1696
2017-06-25T07:41:58.318Z,2100
2017-06-25T07:42:59.961Z,3416
2017-06-25T07:44:01.604Z,2560
2017-06-25T07:45:03.259Z,1852
2017-06-25T07:46:04.896Z,1300
2017-06-25T07:47:06.536Z,1184
2017-06-25T07:48:08.208Z,1192
2017-06-25T07:49:09.847Z,1712
2017-06-25T07:50:11.493Z,2272
2017-06-25T07:51:13.136Z,2568
2017-06-25T07:52:14.781Z,4008
2017-06-25T07:53:16.422Z,3480
2017-06-25T07:54:19.017Z,2900
2017-06-25T07:55:20.754Z,2480
2017-06-25T07:56:22.391Z,3036
2017-06-25T07:57:24.047Z,2600
2017-06-25T07:58:25.694Z,2668
2017-06-25T07:59:27.341Z,3368
2017-06-25T08:00:29.009Z,4044
2017-06-25T08:01:30.645Z,4404
2017-06-25T08:02:32.295Z,4428
2017-06-25T08:03:33.952Z,4404
2017-06-25T08:04:35.581Z,3856
2017-06-25T08:05:37.225Z,3488
2017-06-25T08:06:38.915Z,3508
2017-06-25T08:07:40.553Z,3252
2017-06-25T08:08:42.189Z,3508
2017-06-25T08:09:43.857Z,4076
2017-06-25T08:10:45.506Z,2904
2017-06-25T08:11:47.187Z,2744
2017-06-25T08:12:48.839Z,2752
2017-06-25T08:13:50.482Z,2184
2017-06-25T08:14:52.124Z,1372
2017-06-25T08:15:53.767Z,1180
2017-06-25T08:16:55.405Z,724
2017-06-25T08:17:57.046Z,692
2017-06-25T08:18:58.698Z,616
2017-06-25T08:20:00.346Z,584
2017-06-25T08:21:01.987Z,636
2017-06-25T08:22:03.657Z,632
2017-06-25T08:23:05.292Z,784
2017-06-25T08:24:06.933Z,856
2017-06-25T08:25:08.628Z,912
2017-06-25T08:26:10.260Z,1060
2017-06-25T08:27:11.904Z,1180
2017-06-25T08:28:13.578Z,1172
2017-06-25T08:29:15.206Z,1016
2017-06-25T08:30:16.843Z,1056
2017-06-25T08:31:18.536Z,1080
2017-06-25T08:32:20.179Z,984
2017-06-25T08:33:21.818Z,964
2017-06-25T08:34:23.566Z,972
2017-06-25T08:35:25.206Z,1000
2017-06-25T08:36:26.854Z,1044
2017-06-25T08:37:28.504Z,1004
2017-06-25T08:38:30.143Z,1116
2017-06-25T08:39:31.783Z,1312
2017-06-25T08:40:33.438Z,1580
2017-06-25T08:41:35.069Z,2012
2017-06-25T08:42:36.733Z,2496
2017-06-25T08:43:38.382Z,3060
2017-06-25T08:44:40.088Z,3728
2017-06-25T08:45:41.761Z,4128
2017-06-25T08:46:43.427Z,4136
2017-06-25T08:47:45.066Z,3488
2017-06-25T08:48:46.732Z,2840
2017-06-25T08:49:48.349Z,2300
2017-06-25T08:50:49.997Z,1912
2017-06-25T08:51:51.651Z,2132
2017-06-25T08:52:53.309Z,2900
2017-06-25T08:53:55.001Z,4048
2017-06-25T08:54:56.642Z,5324
2017-06-25T08:55:58.286Z,5572
2017-06-25T08:56:59.934Z,5648
2017-06-25T08:58:01.566Z,5220
2017-06-25T08:59:03.224Z,4760
2017-06-25T09:00:04.862Z,4456
2017-06-25T09:01:06.506Z,3880
2017-06-25T09:02:08.150Z,3872
2017-06-25T09:03:09.801Z,4512
2017-06-25T09:04:11.446Z,4880
2017-06-25T09:05:13.081Z,5216
2017-06-25T09:06:14.717Z,6044
2017-06-25T09:07:16.358Z,6660
2017-06-25T09:08:18.018Z,6656
2017-06-25T09:09:19.715Z,6052
2017-06-25T09:10:21.331Z,5320
2017-06-25T09:11:22.979Z,4172
2017-06-25T09:12:25.568Z,3548
2017-06-25T09:13:27.203Z,3256
2017-06-25T09:14:28.888Z,3084
2017-06-25T09:15:30.543Z,3220
2017-06-25T09:16:32.188Z,3148
2017-06-25T09:17:33.875Z,3212
2017-06-25T09:18:35.520Z,2960
2017-06-25T09:19:37.165Z,2524
2017-06-25T09:20:38.833Z,2816
2017-06-25T09:21:40.486Z,2512
2017-06-25T09:22:42.141Z,2236
2017-06-25T09:23:43.788Z,2056
2017-06-25T09:24:45.432Z,2064
2017-06-25T09:25:47.076Z,1848
2017-06-25T09:26:48.741Z,1380
2017-06-25T09:27:50.385Z,1372
2017-06-25T09:28:52.029Z,1736
2017-06-25T09:29:53.698Z,2048
2017-06-25T09:30:55.347Z,2664
2017-06-25T09:31:57.154Z,3668
2017-06-25T09:32:58.815Z,4736
2017-06-25T09:34:00.517Z,4924
2017-06-25T09:35:02.103Z,5588
2017-06-25T09:36:03.774Z,6404
2017-06-25T09:37:05.415Z,6744
2017-06-25T09:38:07.059Z,6112
2017-06-25T09:39:08.718Z,5964
2017-06-25T09:40:10.378Z,5768
2017-06-25T09:41:12.039Z,6064
2017-06-25T09:42:13.749Z,6284
2017-06-25T09:43:15.366Z,6504
2017-06-25T09:44:17.050Z,6372
2017-06-25T09:45:18.667Z,6120
2017-06-25T09:46:20.314Z,5660
2017-06-25T09:47:21.953Z,5468
2017-06-25T09:48:23.627Z,5376
2017-06-25T09:49:25.270Z,5340
2017-06-25T09:50:26.995Z,6636
2017-06-25T09:51:28.644Z,7212
2017-06-25T09:52:30.283Z,6632
2017-06-25T09:53:31.928Z,5396
2017-06-25T09:54:33.581Z,5028
2017-06-25T09:55:35.221Z,4892
2017-06-25T09:56:36.866Z,4804
2017-06-25T09:57:38.517Z,3656
2017-06-25T09:58:40.177Z,3024
2017-06-25T09:59:41.823Z,2448
2017-06-25T10:00:43.477Z,1892
2017-06-25T10:01:45.554Z,1736
2017-06-25T10:02:47.199Z,1552
2017-06-25T10:03:48.877Z,1288
2017-06-25T10:04:50.506Z,1324
2017-06-25T10:05:52.162Z,1252
2017-06-25T10:06:53.813Z,1292
2017-06-25T10:07:55.453Z,1240
2017-06-25T10:08:57.101Z,1708
2017-06-25T10:09:58.749Z,1428
2017-06-25T10:11:00.790Z,1228
2017-06-25T10:12:02.415Z,2156
2017-06-25T10:13:04.080Z,2748
2017-06-25T10:14:05.772Z,2332
2017-06-25T10:15:07.417Z,2800
2017-06-25T10:16:09.080Z,2732
2017-06-25T10:17:10.719Z,1712
2017-06-25T10:18:12.361Z,1592
2017-06-25T10:19:14.034Z,2244
2017-06-25T10:20:15.669Z,1872
2017-06-25T10:21:17.561Z,2848
2017-06-25T10:22:19.890Z,2300
2017-06-25T10:23:21.804Z,2724
2017-06-25T10:24:24.333Z,2348
2017-06-25T10:25:25.972Z,2280
2017-06-25T10:26:27.613Z,2104
2017-06-25T10:27:29.440Z,2140
2017-06-25T10:28:32.227Z,2508
2017-06-25T10:29:33.924Z,2612
2017-06-25T10:30:35.636Z,2644
2017-06-25T10:31:37.254Z,2532
2017-06-25T10:32:38.912Z,2388
2017-06-25T10:33:41.346Z,2236
2017-06-25T10:34:42.995Z,2236
2017-06-25T10:35:45.141Z,2380
2017-06-25T10:36:46.834Z,2616
2017-06-25T10:37:48.490Z,2560
2017-06-25T10:38:50.595Z,2440
2017-06-25T10:39:52.967Z,2300
2017-06-25T10:40:54.646Z,2336
2017-06-25T10:41:56.284Z,2392
2017-06-25T10:42:57.930Z,2428
2017-06-25T10:43:59.778Z,2396
2017-06-25T10:45:02.223Z,2548
2017-06-25T10:46:03.884Z,2804
2017-06-25T10:47:05.522Z,3160
2017-06-25T10:48:07.164Z,3364
2017-06-25T10:49:08.822Z,3732
2017-06-25T10:50:11.276Z,3908
2017-06-25T10:51:13.045Z,3864
2017-06-25T10:52:14.701Z,3720
2017-06-25T10:53:16.521Z,3916
2017-06-25T10:54:18.166Z,4268
2017-06-25T10:55:20.035Z,4480
2017-06-25T10:56:22.412Z,4596
2017-06-25T10:57:24.088Z,4428
2017-06-25T10:58:25.730Z,4288
2017-06-25T10:59:27.371Z,4300
2017-06-25T11:00:29.028Z,4340
2017-06-25T11:01:32.379Z,4648
2017-06-25T11:02:34.074Z,4908
2017-06-25T11:03:35.740Z,5408
2017-06-25T11:04:37.392Z,6180
2017-06-25T11:05:39.050Z,6028
2017-06-25T11:06:40.694Z,5396
2017-06-25T11:07:42.335Z,4308
2017-06-25T11:08:44.888Z,3756
2017-06-25T11:09:46.569Z,4104
2017-06-25T11:10:48.218Z,4336
2017-06-25T11:11:49.861Z,4548
2017-06-25T11:12:51.517Z,4168
2017-06-25T11:13:53.323Z,3360
2017-06-25T11:14:55.999Z,3452
2017-06-25T11:15:57.646Z,3768
2017-06-25T11:16:59.362Z,4200
2017-06-25T11:18:01.006Z,4504
2017-06-25T11:19:02.654Z,4812
2017-06-25T11:20:08.134Z,5208
2017-06-25T11:21:09.798Z,5416
2017-06-25T11:22:11.536Z,5344
2017-06-25T11:23:13.165Z,5768
2017-06-25T11:24:15.864Z,6396
2017-06-25T11:25:18.411Z,6664
2017-06-25T11:26:20.056Z,6920
2017-06-25T11:27:21.821Z,6816
2017-06-25T11:28:23.650Z,7016
2017-06-25T11:29:25.876Z,6636
2017-06-25T11:30:27.601Z,7352
2017-06-25T11:31:29.262Z,8792
2017-06-25T11:32:31.553Z,10312
2017-06-25T11:33:33.205Z,10776
2017-06-25T11:34:35.361Z,10984
2017-06-25T11:35:37.003Z,12012
2017-06-25T11:36:38.644Z,12792
2017-06-25T11:37:40.342Z,13492
2017-06-25T11:38:41.971Z,14304
2017-06-25T11:39:43.845Z,15164
2017-06-25T11:40:45.948Z,14596
2017-06-25T11:41:47.585Z,12844
2017-06-25T11:42:49.244Z,13796
2017-06-25T11:43:50.883Z,10416
2017-06-25T11:44:52.609Z,8284
2017-06-25T11:45:54.368Z,10788
2017-06-25T11:46:56.202Z,10304
2017-06-25T11:47:58.263Z,9568
2017-06-25T11:48:59.909Z,8244
2017-06-25T11:50:01.565Z,6100
2017-06-25T11:51:03.213Z,3496
2017-06-25T11:52:04.856Z,2660
2017-06-25T11:53:06.885Z,2844
2017-06-25T11:54:08.476Z,2364
2017-06-25T11:55:10.124Z,2180
2017-06-25T11:56:11.766Z,2100
2017-06-25T11:57:13.422Z,2012
2017-06-25T11:58:15.070Z,3032
2017-06-25T11:59:16.726Z,4580
2017-06-25T12:00:18.361Z,5288
2017-06-25T12:01:20.006Z,5280
2017-06-25T12:02:21.653Z,4748
2017-06-25T12:03:23.289Z,4168
2017-06-25T12:04:24.950Z,4108
2017-06-25T12:05:26.596Z,4228
2017-06-25T12:06:28.232Z,4336
2017-06-25T12:07:29.890Z,4512
2017-06-25T12:08:31.536Z,4752
2017-06-25T12:09:33.181Z,4908
2017-06-25T12:10:34.831Z,5020
2017-06-25T12:11:36.476Z,5320
2017-06-25T12:12:38.124Z,4820
2017-06-25T12:13:39.783Z,4772
2017-06-25T12:14:41.427Z,4728
2017-06-25T12:15:43.065Z,4360
2017-06-25T12:16:44.715Z,4468
2017-06-25T12:17:46.355Z,4784
2017-06-25T12:18:47.992Z,4844
2017-06-25T12:19:49.656Z,4744
2017-06-25T12:20:51.321Z,5336
2017-06-25T12:21:52.976Z,6136
2017-06-25T12:22:54.934Z,5772
2017-06-25T12:23:56.585Z,4632
2017-06-25T12:24:58.248Z,5324
2017-06-25T12:25:59.900Z,4976
2017-06-25T12:27:01.542Z,4892
2017-06-25T12:28:03.192Z,4716
2017-06-25T12:29:04.873Z,4436
2017-06-25T12:30:06.951Z,4324
2017-06-25T12:31:08.587Z,4468
2017-06-25T12:32:10.233Z,4820
2017-06-25T12:33:11.879Z,4632
2017-06-25T12:34:13.518Z,4692
2017-06-25T12:35:15.161Z,4452
2017-06-25T12:36:16.799Z,3976
2017-06-25T12:37:18.449Z,4120
2017-06-25T12:38:20.117Z,4132
2017-06-25T12:39:21.759Z,4356
2017-06-25T12:40:23.411Z,5388
2017-06-25T12:41:25.068Z,4916
2017-06-25T12:42:26.729Z,4416
2017-06-25T12:43:28.400Z,4132
2017-06-25T12:44:30.235Z,3844
2017-06-25T12:45:31.881Z,3532
2017-06-25T12:46:33.534Z,3444
2017-06-25T12:47:35.177Z,2984
2017-06-25T12:48:39.963Z,2780
2017-06-25T12:49:41.604Z,2648
2017-06-25T12:50:43.242Z,2540
2017-06-25T12:51:44.886Z,2384
2017-06-25T12:52:46.534Z,2204
2017-06-25T12:53:48.191Z,1856
2017-06-25T12:54:49.920Z,1604
2017-06-25T12:55:51.560Z,1412
2017-06-25T12:56:53.208Z,1244
2017-06-25T12:57:54.882Z,1856
2017-06-25T12:58:56.509Z,2368
2017-06-25T12:59:58.153Z,2624
2017-06-25T13:00:59.818Z,1864
2017-06-25T13:02:01.465Z,1520
2017-06-25T13:03:03.106Z,1316
2017-06-25T13:04:04.759Z,1704
2017-06-25T13:05:06.433Z,2216
2017-06-25T13:06:08.088Z,2604
2017-06-25T13:07:09.758Z,2996
2017-06-25T13:08:11.407Z,3264
2017-06-25T13:09:13.049Z,3472
2017-06-25T13:10:14.692Z,3180
2017-06-25T13:11:17.117Z,2928
2017-06-25T13:12:18.790Z,2904
2017-06-25T13:13:20.430Z,2728
2017-06-25T13:14:22.069Z,2612
2017-06-25T13:15:23.716Z,2700
2017-06-25T13:16:25.361Z,2832
2017-06-25T13:17:27.002Z,3016
2017-06-25T13:18:28.656Z,3500
2017-06-25T13:19:30.297Z,3504
2017-06-25T13:20:31.942Z,3400
2017-06-25T13:21:33.601Z,3492
2017-06-25T13:22:35.246Z,3564
2017-06-25T13:23:36.891Z,3652
2017-06-25T13:24:38.581Z,3596
2017-06-25T13:25:40.197Z,3340
2017-06-25T13:26:41.838Z,3472
2017-06-25T13:27:43.479Z,4460
2017-06-25T13:28:45.130Z,5440
2017-06-25T13:29:46.771Z,5568
2017-06-25T13:30:48.411Z,5344
2017-06-25T13:31:50.064Z,5244
2017-06-25T13:32:51.720Z,5224
2017-06-25T13:33:53.343Z,4708
2017-06-25T13:34:54.981Z,4448
2017-06-25T13:35:56.659Z,4500
2017-06-25T13:36:58.300Z,4796
2017-06-25T13:37:59.954Z,5204
2017-06-25T13:39:01.595Z,5416
2017-06-25T13:40:03.285Z,4740
2017-06-25T13:41:04.947Z,4004
2017-06-25T13:42:06.588Z,4628
2017-06-25T13:43:08.233Z,4448
2017-06-25T13:44:09.889Z,3120
2017-06-25T13:45:11.597Z,2072
2017-06-25T13:46:13.238Z,1736
2017-06-25T13:47:14.894Z,1660
2017-06-25T13:48:16.530Z,1072
2017-06-25T13:49:18.345Z,1240
2017-06-25T13:50:20.021Z,1412
2017-06-25T13:51:25.783Z,1360
2017-06-25T13:52:27.430Z,1808
2017-06-25T13:53:29.813Z,1996
2017-06-25T13:54:31.460Z,1948
2017-06-25T13:55:33.104Z,1728
2017-06-25T13:56:34.762Z,2176
2017-06-25T13:57:36.405Z,2096
2017-06-25T13:58:38.049Z,2092
2017-06-25T13:59:39.694Z,1740
2017-06-25T14:00:41.366Z,2172
2017-06-25T14:01:43.002Z,2748
2017-06-25T14:02:44.651Z,2072
2017-06-25T14:03:46.300Z,1536
2017-06-25T14:04:47.970Z,1656
2017-06-25T14:05:49.641Z,2128
2017-06-25T14:06:51.312Z,1508
2017-06-25T14:07:53.149Z,1536
2017-06-25T14:08:57.099Z,1692
2017-06-25T14:09:58.769Z,2060